sensor_id;sensor_type;location;lat;lon;timestamp;P1;durP1;ratioP1;P2;durP2;ratioP2
20705;SDS011;10514;49.468;11.044;2024-03-06T00:00:55;13.73;;;10.03;;
20705;SDS011;10514;49.468;11.044;2024-03-06T00:03:21;14.60;;;9.83;;
20705;SDS011;10514;49.468;11.044;2024-03-06T00:05:47;15.30;;;10.13;;
20705;SDS011;10514;49.468;11.044;2024-03-06T00:08:13;16.47;;;11.57;;
20705;SDS011;10514;49.468;11.044;2024-03-06T00:10:40;15.77;;;10.50;;
20705;SDS011;10514;49.468;11.044;2024-03-06T00:13:06;14.03;;;8.80;;
20705;SDS011;10514;49.468;11.044;2024-03-06T00:15:31;14.87;;;9.67;;
20705;SDS011;10514;49.468;11.044;2024-03-06T00:17:57;15.67;;;9.80;;
20705;SDS011;10514;49.468;11.044;2024-03-06T00:20:23;15.30;;;10.60;;
20705;SDS011;10514;49.468;11.044;2024-03-06T00:22:49;16.77;;;10.63;;
20705;SDS011;10514;49.468;11.044;2024-03-06T00:25:14;18.13;;;12.27;;
20705;SDS011;10514;49.468;11.044;2024-03-06T00:27:40;15.10;;;10.37;;
20705;SDS011;10514;49.468;11.044;2024-03-06T00:30:05;16.63;;;10.33;;
20705;SDS011;10514;49.468;11.044;2024-03-06T00:32:31;17.43;;;11.60;;
20705;SDS011;10514;49.468;11.044;2024-03-06T00:34:57;18.07;;;11.33;;
20705;SDS011;10514;49.468;11.044;2024-03-06T00:37:23;15.30;;;10.17;;
20705;SDS011;10514;49.468;11.044;2024-03-06T00:39:48;16.57;;;10.60;;
20705;SDS011;10514;49.468;11.044;2024-03-06T00:42:14;13.97;;;10.23;;
20705;SDS011;10514;49.468;11.044;2024-03-06T00:44:39;15.53;;;10.80;;
20705;SDS011;10514;49.468;11.044;2024-03-06T00:47:05;16.30;;;10.97;;
20705;SDS011;10514;49.468;11.044;2024-03-06T00:49:30;14.90;;;10.30;;
20705;SDS011;10514;49.468;11.044;2024-03-06T00:51:56;15.70;;;10.03;;
20705;SDS011;10514;49.468;11.044;2024-03-06T00:54:21;15.27;;;10.40;;
20705;SDS011;10514;49.468;11.044;2024-03-06T00:56:47;18.17;;;10.67;;
20705;SDS011;10514;49.468;11.044;2024-03-06T00:59:12;16.73;;;11.37;;
20705;SDS011;10514;49.468;11.044;2024-03-06T01:01:38;16.50;;;10.67;;
20705;SDS011;10514;49.468;11.044;2024-03-06T01:04:03;15.97;;;11.10;;
20705;SDS011;10514;49.468;11.044;2024-03-06T01:06:29;16.60;;;10.90;;
20705;SDS011;10514;49.468;11.044;2024-03-06T01:08:55;14.97;;;10.57;;
20705;SDS011;10514;49.468;11.044;2024-03-06T01:11:22;17.57;;;11.13;;
20705;SDS011;10514;49.468;11.044;2024-03-06T01:13:47;16.07;;;11.10;;
20705;SDS011;10514;49.468;11.044;2024-03-06T01:16:13;17.40;;;10.83;;
20705;SDS011;10514;49.468;11.044;2024-03-06T01:18:38;15.90;;;10.97;;
20705;SDS011;10514;49.468;11.044;2024-03-06T01:21:04;17.33;;;11.23;;
20705;SDS011;10514;49.468;11.044;2024-03-06T01:23:30;18.20;;;11.83;;
20705;SDS011;10514;49.468;11.044;2024-03-06T01:25:55;16.97;;;10.50;;
20705;SDS011;10514;49.468;11.044;2024-03-06T01:28:21;17.10;;;10.73;;
20705;SDS011;10514;49.468;11.044;2024-03-06T01:30:47;16.80;;;11.53;;
20705;SDS011;10514;49.468;11.044;2024-03-06T01:33:12;16.50;;;11.00;;
20705;SDS011;10514;49.468;11.044;2024-03-06T01:35:38;16.70;;;11.40;;
20705;SDS011;10514;49.468;11.044;2024-03-06T01:38:03;16.73;;;11.57;;
20705;SDS011;10514;49.468;11.044;2024-03-06T01:40:29;18.20;;;12.00;;
20705;SDS011;10514;49.468;11.044;2024-03-06T01:42:55;17.13;;;12.03;;
20705;SDS011;10514;49.468;11.044;2024-03-06T01:45:21;16.33;;;10.87;;
20705;SDS011;10514;49.468;11.044;2024-03-06T01:47:46;16.37;;;11.07;;
20705;SDS011;10514;49.468;11.044;2024-03-06T01:50:12;16.07;;;11.00;;
20705;SDS011;10514;49.468;11.044;2024-03-06T01:52:38;17.43;;;11.90;;
20705;SDS011;10514;49.468;11.044;2024-03-06T01:55:06;16.60;;;11.10;;
20705;SDS011;10514;49.468;11.044;2024-03-06T01:57:32;18.13;;;11.70;;
20705;SDS011;10514;49.468;11.044;2024-03-06T01:59:59;14.83;;;10.20;;
20705;SDS011;10514;49.468;11.044;2024-03-06T02:02:26;16.93;;;11.53;;
20705;SDS011;10514;49.468;11.044;2024-03-06T02:04:53;19.10;;;12.37;;
20705;SDS011;10514;49.468;11.044;2024-03-06T02:07:19;17.27;;;12.10;;
20705;SDS011;10514;49.468;11.044;2024-03-06T02:09:45;19.87;;;12.90;;
20705;SDS011;10514;49.468;11.044;2024-03-06T02:12:11;18.57;;;11.97;;
20705;SDS011;10514;49.468;11.044;2024-03-06T02:14:38;19.10;;;12.40;;
20705;SDS011;10514;49.468;11.044;2024-03-06T02:17:03;18.37;;;11.93;;
20705;SDS011;10514;49.468;11.044;2024-03-06T02:19:42;17.60;;;11.53;;
20705;SDS011;10514;49.468;11.044;2024-03-06T02:22:08;18.60;;;13.00;;
20705;SDS011;10514;49.468;11.044;2024-03-06T02:24:35;20.33;;;13.17;;
20705;SDS011;10514;49.468;11.044;2024-03-06T02:27:01;20.07;;;12.63;;
20705;SDS011;10514;49.468;11.044;2024-03-06T02:29:33;19.80;;;12.07;;
20705;SDS011;10514;49.468;11.044;2024-03-06T02:31:59;21.33;;;13.90;;
20705;SDS011;10514;49.468;11.044;2024-03-06T02:34:27;18.70;;;13.43;;
20705;SDS011;10514;49.468;11.044;2024-03-06T02:36:53;19.67;;;12.90;;
20705;SDS011;10514;49.468;11.044;2024-03-06T02:39:19;20.97;;;12.83;;
20705;SDS011;10514;49.468;11.044;2024-03-06T02:41:46;21.80;;;13.73;;
20705;SDS011;10514;49.468;11.044;2024-03-06T02:44:12;20.67;;;12.83;;
20705;SDS011;10514;49.468;11.044;2024-03-06T02:46:38;20.80;;;13.73;;
20705;SDS011;10514;49.468;11.044;2024-03-06T02:49:04;22.20;;;14.20;;
20705;SDS011;10514;49.468;11.044;2024-03-06T02:51:30;21.87;;;13.80;;
20705;SDS011;10514;49.468;11.044;2024-03-06T02:53:56;19.00;;;12.60;;
20705;SDS011;10514;49.468;11.044;2024-03-06T02:56:22;20.60;;;14.13;;
20705;SDS011;10514;49.468;11.044;2024-03-06T02:58:47;20.53;;;13.57;;
20705;SDS011;10514;49.468;11.044;2024-03-06T03:01:13;22.77;;;14.60;;
20705;SDS011;10514;49.468;11.044;2024-03-06T03:03:42;22.40;;;13.93;;
20705;SDS011;10514;49.468;11.044;2024-03-06T03:06:09;21.43;;;14.07;;
20705;SDS011;10514;49.468;11.044;2024-03-06T03:08:36;22.93;;;14.80;;
20705;SDS011;10514;49.468;11.044;2024-03-06T03:11:02;23.37;;;15.40;;
20705;SDS011;10514;49.468;11.044;2024-03-06T03:13:28;23.73;;;14.50;;
20705;SDS011;10514;49.468;11.044;2024-03-06T03:15:55;21.07;;;14.50;;
20705;SDS011;10514;49.468;11.044;2024-03-06T03:18:20;22.23;;;14.53;;
20705;SDS011;10514;49.468;11.044;2024-03-06T03:20:46;20.13;;;13.30;;
20705;SDS011;10514;49.468;11.044;2024-03-06T03:23:12;23.00;;;14.90;;
20705;SDS011;10514;49.468;11.044;2024-03-06T03:25:40;24.37;;;14.40;;
20705;SDS011;10514;49.468;11.044;2024-03-06T03:28:06;25.63;;;14.33;;
20705;SDS011;10514;49.468;11.044;2024-03-06T03:30:31;23.67;;;15.03;;
20705;SDS011;10514;49.468;11.044;2024-03-06T03:32:57;25.17;;;15.60;;
20705;SDS011;10514;49.468;11.044;2024-03-06T03:35:23;24.67;;;14.97;;
20705;SDS011;10514;49.468;11.044;2024-03-06T03:37:53;24.10;;;15.17;;
20705;SDS011;10514;49.468;11.044;2024-03-06T03:40:20;23.77;;;14.50;;
20705;SDS011;10514;49.468;11.044;2024-03-06T03:42:46;23.27;;;14.47;;
20705;SDS011;10514;49.468;11.044;2024-03-06T03:45:12;22.80;;;14.77;;
20705;SDS011;10514;49.468;11.044;2024-03-06T03:47:38;26.57;;;16.37;;
20705;SDS011;10514;49.468;11.044;2024-03-06T03:50:03;26.97;;;16.13;;
20705;SDS011;10514;49.468;11.044;2024-03-06T03:52:29;22.67;;;14.47;;
20705;SDS011;10514;49.468;11.044;2024-03-06T03:54:55;23.50;;;14.57;;
20705;SDS011;10514;49.468;11.044;2024-03-06T03:57:20;22.43;;;14.43;;
20705;SDS011;10514;49.468;11.044;2024-03-06T03:59:46;23.43;;;14.70;;
20705;SDS011;10514;49.468;11.044;2024-03-06T04:02:11;25.00;;;15.03;;
20705;SDS011;10514;49.468;11.044;2024-03-06T04:04:37;23.17;;;14.40;;
20705;SDS011;10514;49.468;11.044;2024-03-06T04:07:03;25.67;;;15.20;;
20705;SDS011;10514;49.468;11.044;2024-03-06T04:09:30;21.77;;;14.43;;
20705;SDS011;10514;49.468;11.044;2024-03-06T04:11:57;26.77;;;15.83;;
20705;SDS011;10514;49.468;11.044;2024-03-06T04:14:23;28.27;;;16.67;;
20705;SDS011;10514;49.468;11.044;2024-03-06T04:16:49;22.97;;;14.80;;
20705;SDS011;10514;49.468;11.044;2024-03-06T04:19:14;28.47;;;17.40;;
20705;SDS011;10514;49.468;11.044;2024-03-06T04:21:43;22.57;;;14.70;;
20705;SDS011;10514;49.468;11.044;2024-03-06T04:24:09;27.47;;;16.23;;
20705;SDS011;10514;49.468;11.044;2024-03-06T04:26:34;25.73;;;16.30;;
20705;SDS011;10514;49.468;11.044;2024-03-06T04:29:00;26.17;;;17.17;;
20705;SDS011;10514;49.468;11.044;2024-03-06T04:31:25;25.93;;;17.10;;
20705;SDS011;10514;49.468;11.044;2024-03-06T04:33:51;27.43;;;16.73;;
20705;SDS011;10514;49.468;11.044;2024-03-06T04:36:17;30.27;;;18.00;;
20705;SDS011;10514;49.468;11.044;2024-03-06T04:38:42;28.57;;;16.73;;
20705;SDS011;10514;49.468;11.044;2024-03-06T04:41:08;27.47;;;16.70;;
20705;SDS011;10514;49.468;11.044;2024-03-06T04:43:33;26.10;;;17.20;;
20705;SDS011;10514;49.468;11.044;2024-03-06T04:46:00;26.87;;;16.40;;
20705;SDS011;10514;49.468;11.044;2024-03-06T04:48:25;30.07;;;18.17;;
20705;SDS011;10514;49.468;11.044;2024-03-06T04:50:51;29.17;;;18.23;;
20705;SDS011;10514;49.468;11.044;2024-03-06T04:53:16;31.03;;;17.97;;
20705;SDS011;10514;49.468;11.044;2024-03-06T04:55:42;32.87;;;19.37;;
20705;SDS011;10514;49.468;11.044;2024-03-06T04:58:07;31.37;;;18.37;;
20705;SDS011;10514;49.468;11.044;2024-03-06T05:00:33;33.50;;;18.87;;
20705;SDS011;10514;49.468;11.044;2024-03-06T05:02:59;31.10;;;17.73;;
20705;SDS011;10514;49.468;11.044;2024-03-06T05:05:24;29.10;;;17.27;;
20705;SDS011;10514;49.468;11.044;2024-03-06T05:07:50;33.70;;;18.17;;
20705;SDS011;10514;49.468;11.044;2024-03-06T05:10:16;31.77;;;17.30;;
20705;SDS011;10514;49.468;11.044;2024-03-06T05:12:42;31.90;;;18.30;;
20705;SDS011;10514;49.468;11.044;2024-03-06T05:15:08;35.87;;;19.80;;
20705;SDS011;10514;49.468;11.044;2024-03-06T05:17:34;35.80;;;18.80;;
20705;SDS011;10514;49.468;11.044;2024-03-06T05:20:00;31.30;;;18.10;;
20705;SDS011;10514;49.468;11.044;2024-03-06T05:22:26;31.57;;;18.63;;
20705;SDS011;10514;49.468;11.044;2024-03-06T05:24:51;36.37;;;19.80;;
20705;SDS011;10514;49.468;11.044;2024-03-06T05:27:17;30.17;;;19.10;;
20705;SDS011;10514;49.468;11.044;2024-03-06T05:29:43;30.97;;;18.77;;
20705;SDS011;10514;49.468;11.044;2024-03-06T05:32:09;32.37;;;19.13;;
20705;SDS011;10514;49.468;11.044;2024-03-06T05:34:35;29.20;;;17.23;;
20705;SDS011;10514;49.468;11.044;2024-03-06T05:37:01;28.77;;;17.00;;
20705;SDS011;10514;49.468;11.044;2024-03-06T05:39:29;30.73;;;16.73;;
20705;SDS011;10514;49.468;11.044;2024-03-06T05:41:54;36.57;;;19.97;;
20705;SDS011;10514;49.468;11.044;2024-03-06T05:44:20;32.30;;;18.63;;
20705;SDS011;10514;49.468;11.044;2024-03-06T05:46:46;31.47;;;18.53;;
20705;SDS011;10514;49.468;11.044;2024-03-06T05:49:12;34.47;;;19.20;;
20705;SDS011;10514;49.468;11.044;2024-03-06T05:51:38;35.67;;;19.13;;
20705;SDS011;10514;49.468;11.044;2024-03-06T05:54:04;34.30;;;18.93;;
20705;SDS011;10514;49.468;11.044;2024-03-06T05:56:33;31.53;;;17.73;;
20705;SDS011;10514;49.468;11.044;2024-03-06T05:58:59;33.63;;;19.00;;
20705;SDS011;10514;49.468;11.044;2024-03-06T06:01:29;29.52;;;17.88;;
20705;SDS011;10514;49.468;11.044;2024-03-06T06:03:55;29.20;;;16.73;;
20705;SDS011;10514;49.468;11.044;2024-03-06T06:06:21;31.47;;;16.97;;
20705;SDS011;10514;49.468;11.044;2024-03-06T06:08:46;31.63;;;18.20;;
20705;SDS011;10514;49.468;11.044;2024-03-06T06:11:12;33.27;;;19.33;;
20705;SDS011;10514;49.468;11.044;2024-03-06T06:13:38;30.70;;;18.00;;
20705;SDS011;10514;49.468;11.044;2024-03-06T06:16:06;37.77;;;19.40;;
20705;SDS011;10514;49.468;11.044;2024-03-06T06:18:32;32.90;;;17.60;;
20705;SDS011;10514;49.468;11.044;2024-03-06T06:20:58;31.57;;;17.27;;
20705;SDS011;10514;49.468;11.044;2024-03-06T06:23:24;34.80;;;19.23;;
20705;SDS011;10514;49.468;11.044;2024-03-06T06:25:50;32.70;;;18.73;;
20705;SDS011;10514;49.468;11.044;2024-03-06T06:28:16;35.30;;;18.90;;
20705;SDS011;10514;49.468;11.044;2024-03-06T06:30:41;29.20;;;17.10;;
20705;SDS011;10514;49.468;11.044;2024-03-06T06:33:07;30.63;;;17.00;;
20705;SDS011;10514;49.468;11.044;2024-03-06T06:35:33;39.13;;;19.87;;
20705;SDS011;10514;49.468;11.044;2024-03-06T06:37:59;37.03;;;19.53;;
20705;SDS011;10514;49.468;11.044;2024-03-06T06:40:25;35.97;;;20.60;;
20705;SDS011;10514;49.468;11.044;2024-03-06T06:42:52;32.90;;;18.20;;
20705;SDS011;10514;49.468;11.044;2024-03-06T06:45:18;33.03;;;18.53;;
20705;SDS011;10514;49.468;11.044;2024-03-06T06:47:45;32.93;;;19.13;;
20705;SDS011;10514;49.468;11.044;2024-03-06T06:50:11;35.70;;;20.23;;
20705;SDS011;10514;49.468;11.044;2024-03-06T06:52:39;36.47;;;20.53;;
20705;SDS011;10514;49.468;11.044;2024-03-06T06:55:06;39.97;;;21.87;;
20705;SDS011;10514;49.468;11.044;2024-03-06T06:57:34;36.80;;;20.37;;
20705;SDS011;10514;49.468;11.044;2024-03-06T07:00:00;36.57;;;20.90;;
20705;SDS011;10514;49.468;11.044;2024-03-06T07:02:27;34.90;;;18.33;;
20705;SDS011;10514;49.468;11.044;2024-03-06T07:04:53;37.83;;;20.27;;
20705;SDS011;10514;49.468;11.044;2024-03-06T07:07:19;37.20;;;20.90;;
20705;SDS011;10514;49.468;11.044;2024-03-06T07:09:44;36.20;;;20.07;;
20705;SDS011;10514;49.468;11.044;2024-03-06T07:12:10;33.40;;;19.73;;
20705;SDS011;10514;49.468;11.044;2024-03-06T07:14:35;33.90;;;20.23;;
20705;SDS011;10514;49.468;11.044;2024-03-06T07:17:01;36.20;;;19.97;;
20705;SDS011;10514;49.468;11.044;2024-03-06T07:19:27;35.47;;;20.57;;
20705;SDS011;10514;49.468;11.044;2024-03-06T07:21:52;37.97;;;21.00;;
20705;SDS011;10514;49.468;11.044;2024-03-06T07:24:18;33.13;;;18.67;;
20705;SDS011;10514;49.468;11.044;2024-03-06T07:26:44;36.03;;;20.10;;
20705;SDS011;10514;49.468;11.044;2024-03-06T07:29:10;32.30;;;18.67;;
20705;SDS011;10514;49.468;11.044;2024-03-06T07:31:40;36.47;;;19.70;;
20705;SDS011;10514;49.468;11.044;2024-03-06T07:34:07;34.13;;;19.23;;
20705;SDS011;10514;49.468;11.044;2024-03-06T07:36:34;35.83;;;20.27;;
20705;SDS011;10514;49.468;11.044;2024-03-06T07:39:02;35.03;;;19.53;;
20705;SDS011;10514;49.468;11.044;2024-03-06T07:41:29;38.30;;;19.07;;
20705;SDS011;10514;49.468;11.044;2024-03-06T07:43:55;34.47;;;19.40;;
20705;SDS011;10514;49.468;11.044;2024-03-06T07:46:20;32.43;;;18.90;;
20705;SDS011;10514;49.468;11.044;2024-03-06T07:48:46;33.33;;;18.73;;
20705;SDS011;10514;49.468;11.044;2024-03-06T07:51:12;33.13;;;18.80;;
20705;SDS011;10514;49.468;11.044;2024-03-06T07:53:38;33.87;;;19.37;;
20705;SDS011;10514;49.468;11.044;2024-03-06T07:56:03;35.73;;;18.93;;
20705;SDS011;10514;49.468;11.044;2024-03-06T07:58:29;33.73;;;19.57;;
20705;SDS011;10514;49.468;11.044;2024-03-06T08:00:56;36.50;;;19.30;;
20705;SDS011;10514;49.468;11.044;2024-03-06T08:03:22;33.57;;;17.80;;
20705;SDS011;10514;49.468;11.044;2024-03-06T08:05:51;30.70;;;18.20;;
20705;SDS011;10514;49.468;11.044;2024-03-06T08:08:20;33.03;;;18.03;;
20705;SDS011;10514;49.468;11.044;2024-03-06T08:10:46;33.27;;;18.70;;
20705;SDS011;10514;49.468;11.044;2024-03-06T08:13:12;29.50;;;17.30;;
20705;SDS011;10514;49.468;11.044;2024-03-06T08:15:38;31.73;;;18.07;;
20705;SDS011;10514;49.468;11.044;2024-03-06T08:18:05;28.80;;;17.53;;
20705;SDS011;10514;49.468;11.044;2024-03-06T08:20:31;31.03;;;17.60;;
20705;SDS011;10514;49.468;11.044;2024-03-06T08:22:58;29.63;;;16.77;;
20705;SDS011;10514;49.468;11.044;2024-03-06T08:25:24;29.33;;;16.70;;
20705;SDS011;10514;49.468;11.044;2024-03-06T08:27:49;29.17;;;17.23;;
20705;SDS011;10514;49.468;11.044;2024-03-06T08:30:15;27.20;;;15.67;;
20705;SDS011;10514;49.468;11.044;2024-03-06T08:32:41;24.50;;;13.93;;
20705;SDS011;10514;49.468;11.044;2024-03-06T08:35:09;24.10;;;13.60;;
20705;SDS011;10514;49.468;11.044;2024-03-06T08:37:39;21.77;;;13.33;;
20705;SDS011;10514;49.468;11.044;2024-03-06T08:40:05;22.80;;;12.83;;
20705;SDS011;10514;49.468;11.044;2024-03-06T08:42:42;23.03;;;13.10;;
20705;SDS011;10514;49.468;11.044;2024-03-06T08:45:08;21.57;;;12.40;;
20705;SDS011;10514;49.468;11.044;2024-03-06T08:47:34;23.60;;;13.47;;
20705;SDS011;10514;49.468;11.044;2024-03-06T08:50:00;23.00;;;12.47;;
20705;SDS011;10514;49.468;11.044;2024-03-06T08:52:27;25.77;;;14.30;;
20705;SDS011;10514;49.468;11.044;2024-03-06T08:54:53;21.83;;;12.83;;
20705;SDS011;10514;49.468;11.044;2024-03-06T08:57:18;24.20;;;12.23;;
20705;SDS011;10514;49.468;11.044;2024-03-06T08:59:46;22.60;;;12.40;;
20705;SDS011;10514;49.468;11.044;2024-03-06T09:02:15;21.10;;;12.73;;
20705;SDS011;10514;49.468;11.044;2024-03-06T09:04:43;22.70;;;12.17;;
20705;SDS011;10514;49.468;11.044;2024-03-06T09:07:10;23.13;;;13.27;;
20705;SDS011;10514;49.468;11.044;2024-03-06T09:09:36;23.53;;;12.57;;
20705;SDS011;10514;49.468;11.044;2024-03-06T09:12:02;23.07;;;12.90;;
20705;SDS011;10514;49.468;11.044;2024-03-06T09:14:32;22.40;;;12.33;;
20705;SDS011;10514;49.468;11.044;2024-03-06T09:16:58;22.03;;;13.00;;
20705;SDS011;10514;49.468;11.044;2024-03-06T09:19:24;21.07;;;12.20;;
20705;SDS011;10514;49.468;11.044;2024-03-06T09:21:49;24.07;;;14.57;;
20705;SDS011;10514;49.468;11.044;2024-03-06T09:24:15;20.63;;;11.87;;
20705;SDS011;10514;49.468;11.044;2024-03-06T09:26:40;21.87;;;12.47;;
20705;SDS011;10514;49.468;11.044;2024-03-06T09:29:06;20.93;;;11.80;;
20705;SDS011;10514;49.468;11.044;2024-03-06T09:31:31;22.47;;;12.23;;
20705;SDS011;10514;49.468;11.044;2024-03-06T09:33:57;20.53;;;12.17;;
20705;SDS011;10514;49.468;11.044;2024-03-06T09:36:23;20.27;;;12.07;;
20705;SDS011;10514;49.468;11.044;2024-03-06T09:38:50;23.20;;;12.00;;
20705;SDS011;10514;49.468;11.044;2024-03-06T09:41:15;21.83;;;12.60;;
20705;SDS011;10514;49.468;11.044;2024-03-06T09:43:43;21.83;;;11.97;;
20705;SDS011;10514;49.468;11.044;2024-03-06T09:46:09;22.23;;;11.93;;
20705;SDS011;10514;49.468;11.044;2024-03-06T09:48:35;20.63;;;12.00;;
20705;SDS011;10514;49.468;11.044;2024-03-06T09:51:02;20.30;;;11.93;;
20705;SDS011;10514;49.468;11.044;2024-03-06T09:53:28;22.87;;;12.53;;
20705;SDS011;10514;49.468;11.044;2024-03-06T09:55:54;19.95;;;12.23;;
20705;SDS011;10514;49.468;11.044;2024-03-06T09:58:23;22.48;;;12.68;;
20705;SDS011;10514;49.468;11.044;2024-03-06T10:00:49;19.25;;;11.82;;
20705;SDS011;10514;49.468;11.044;2024-03-06T10:03:16;22.90;;;12.75;;
20705;SDS011;10514;49.468;11.044;2024-03-06T10:05:42;21.27;;;12.65;;
20705;SDS011;10514;49.468;11.044;2024-03-06T10:08:08;21.98;;;13.57;;
20705;SDS011;10514;49.468;11.044;2024-03-06T10:10:34;22.50;;;12.90;;
20705;SDS011;10514;49.468;11.044;2024-03-06T10:13:01;19.52;;;11.15;;
20705;SDS011;10514;49.468;11.044;2024-03-06T10:15:27;20.05;;;12.05;;
20705;SDS011;10514;49.468;11.044;2024-03-06T10:20:43;19.67;;;11.48;;
20705;SDS011;10514;49.468;11.044;2024-03-06T10:23:09;19.73;;;12.65;;
20705;SDS011;10514;49.468;11.044;2024-03-06T10:25:35;21.63;;;12.48;;
20705;SDS011;10514;49.468;11.044;2024-03-06T10:28:07;22.85;;;12.45;;
20705;SDS011;10514;49.468;11.044;2024-03-06T10:30:34;24.45;;;13.05;;
20705;SDS011;10514;49.468;11.044;2024-03-06T10:33:04;19.40;;;12.57;;
20705;SDS011;10514;49.468;11.044;2024-03-06T10:35:33;18.75;;;11.65;;
20705;SDS011;10514;49.468;11.044;2024-03-06T10:38:05;24.90;;;12.57;;
20705;SDS011;10514;49.468;11.044;2024-03-06T10:40:33;20.23;;;12.27;;
20705;SDS011;10514;49.468;11.044;2024-03-06T10:43:02;21.70;;;12.55;;
20705;SDS011;10514;49.468;11.044;2024-03-06T10:48:16;22.02;;;12.70;;
20705;SDS011;10514;49.468;11.044;2024-03-06T10:50:44;19.38;;;11.80;;
20705;SDS011;10514;49.468;11.044;2024-03-06T10:53:11;22.85;;;13.68;;
20705;SDS011;10514;49.468;11.044;2024-03-06T10:55:45;22.25;;;13.02;;
20705;SDS011;10514;49.468;11.044;2024-03-06T10:58:11;22.40;;;12.75;;
20705;SDS011;10514;49.468;11.044;2024-03-06T11:00:40;24.10;;;13.32;;
20705;SDS011;10514;49.468;11.044;2024-03-06T11:03:10;21.75;;;13.20;;
20705;SDS011;10514;49.468;11.044;2024-03-06T11:05:39;20.98;;;12.15;;
20705;SDS011;10514;49.468;11.044;2024-03-06T11:10:39;20.90;;;12.48;;
20705;SDS011;10514;49.468;11.044;2024-03-06T11:15:48;21.00;;;11.70;;
20705;SDS011;10514;49.468;11.044;2024-03-06T11:23:28;18.23;;;11.18;;
20705;SDS011;10514;49.468;11.044;2024-03-06T11:25:55;20.05;;;11.25;;
20705;SDS011;10514;49.468;11.044;2024-03-06T11:28:25;19.55;;;10.73;;
20705;SDS011;10514;49.468;11.044;2024-03-06T11:33:44;21.02;;;11.65;;
20705;SDS011;10514;49.468;11.044;2024-03-06T11:36:20;20.42;;;11.30;;
20705;SDS011;10514;49.468;11.044;2024-03-06T11:38:59;16.08;;;10.05;;
20705;SDS011;10514;49.468;11.044;2024-03-06T11:44:00;18.13;;;10.63;;
20705;SDS011;10514;49.468;11.044;2024-03-06T11:46:46;16.75;;;10.80;;
20705;SDS011;10514;49.468;11.044;2024-03-06T11:49:18;17.75;;;10.73;;
20705;SDS011;10514;49.468;11.044;2024-03-06T11:51:46;16.73;;;10.20;;
20705;SDS011;10514;49.468;11.044;2024-03-06T11:54:12;17.00;;;10.00;;
20705;SDS011;10514;49.468;11.044;2024-03-06T11:56:41;15.50;;;9.30;;
20705;SDS011;10514;49.468;11.044;2024-03-06T11:59:12;19.92;;;10.55;;
20705;SDS011;10514;49.468;11.044;2024-03-06T12:01:37;17.88;;;9.63;;
20705;SDS011;10514;49.468;11.044;2024-03-06T12:04:03;17.27;;;10.38;;
20705;SDS011;10514;49.468;11.044;2024-03-06T12:06:32;20.75;;;11.25;;
20705;SDS011;10514;49.468;11.044;2024-03-06T12:08:59;18.33;;;11.25;;
20705;SDS011;10514;49.468;11.044;2024-03-06T12:11:24;17.88;;;11.35;;
20705;SDS011;10514;49.468;11.044;2024-03-06T12:13:54;19.80;;;10.90;;
20705;SDS011;10514;49.468;11.044;2024-03-06T12:16:20;19.83;;;11.85;;
20705;SDS011;10514;49.468;11.044;2024-03-06T12:18:46;21.92;;;12.35;;
20705;SDS011;10514;49.468;11.044;2024-03-06T12:21:18;17.88;;;11.40;;
20705;SDS011;10514;49.468;11.044;2024-03-06T12:23:44;19.63;;;11.23;;
20705;SDS011;10514;49.468;11.044;2024-03-06T12:26:09;18.27;;;10.13;;
20705;SDS011;10514;49.468;11.044;2024-03-06T12:28:39;17.77;;;10.60;;
20705;SDS011;10514;49.468;11.044;2024-03-06T12:31:05;20.48;;;11.27;;
20705;SDS011;10514;49.468;11.044;2024-03-06T12:33:32;17.35;;;10.18;;
20705;SDS011;10514;49.468;11.044;2024-03-06T12:36:00;18.95;;;10.50;;
20705;SDS011;10514;49.468;11.044;2024-03-06T12:38:30;19.23;;;10.93;;
20705;SDS011;10514;49.468;11.044;2024-03-06T12:40:56;16.42;;;9.57;;
20705;SDS011;10514;49.468;11.044;2024-03-06T12:43:21;18.75;;;10.35;;
20705;SDS011;10514;49.468;11.044;2024-03-06T12:45:47;19.75;;;10.13;;
20705;SDS011;10514;49.468;11.044;2024-03-06T12:48:12;20.55;;;10.43;;
20705;SDS011;10514;49.468;11.044;2024-03-06T12:50:38;17.77;;;10.30;;
20705;SDS011;10514;49.468;11.044;2024-03-06T12:53:03;16.85;;;9.63;;
20705;SDS011;10514;49.468;11.044;2024-03-06T12:55:32;17.45;;;9.50;;
20705;SDS011;10514;49.468;11.044;2024-03-06T12:57:57;17.27;;;9.63;;
20705;SDS011;10514;49.468;11.044;2024-03-06T13:00:23;15.88;;;9.38;;
20705;SDS011;10514;49.468;11.044;2024-03-06T13:02:49;16.50;;;9.77;;
20705;SDS011;10514;49.468;11.044;2024-03-06T13:05:18;16.40;;;9.95;;
20705;SDS011;10514;49.468;11.044;2024-03-06T13:07:44;17.60;;;10.02;;
20705;SDS011;10514;49.468;11.044;2024-03-06T13:10:10;17.35;;;9.60;;
20705;SDS011;10514;49.468;11.044;2024-03-06T13:12:37;18.95;;;10.68;;
20705;SDS011;10514;49.468;11.044;2024-03-06T13:15:03;16.35;;;9.77;;
20705;SDS011;10514;49.468;11.044;2024-03-06T13:17:29;15.90;;;9.68;;
20705;SDS011;10514;49.468;11.044;2024-03-06T13:19:55;18.42;;;10.43;;
20705;SDS011;10514;49.468;11.044;2024-03-06T13:22:21;18.42;;;10.88;;
20705;SDS011;10514;49.468;11.044;2024-03-06T13:24:47;16.20;;;9.70;;
20705;SDS011;10514;49.468;11.044;2024-03-06T13:27:13;16.88;;;10.27;;
20705;SDS011;10514;49.468;11.044;2024-03-06T13:29:39;16.88;;;9.77;;
20705;SDS011;10514;49.468;11.044;2024-03-06T13:32:04;17.40;;;10.85;;
20705;SDS011;10514;49.468;11.044;2024-03-06T13:34:33;15.45;;;9.70;;
20705;SDS011;10514;49.468;11.044;2024-03-06T13:36:59;17.08;;;9.98;;
20705;SDS011;10514;49.468;11.044;2024-03-06T13:39:25;18.15;;;10.80;;
20705;SDS011;10514;49.468;11.044;2024-03-06T13:41:50;16.52;;;9.90;;
20705;SDS011;10514;49.468;11.044;2024-03-06T13:44:17;15.98;;;10.10;;
20705;SDS011;10514;49.468;11.044;2024-03-06T13:46:43;17.25;;;9.80;;
20705;SDS011;10514;49.468;11.044;2024-03-06T13:49:11;16.52;;;9.27;;
20705;SDS011;10514;49.468;11.044;2024-03-06T13:52:01;14.45;;;9.15;;
20705;SDS011;10514;49.468;11.044;2024-03-06T13:54:27;16.25;;;10.38;;
20705;SDS011;10514;49.468;11.044;2024-03-06T13:56:53;17.05;;;9.13;;
20705;SDS011;10514;49.468;11.044;2024-03-06T13:59:26;16.27;;;9.70;;
20705;SDS011;10514;49.468;11.044;2024-03-06T14:01:52;14.75;;;9.50;;
20705;SDS011;10514;49.468;11.044;2024-03-06T14:04:18;16.38;;;10.25;;
20705;SDS011;10514;49.468;11.044;2024-03-06T14:06:44;15.40;;;10.00;;
20705;SDS011;10514;49.468;11.044;2024-03-06T14:09:09;18.48;;;11.18;;
20705;SDS011;10514;49.468;11.044;2024-03-06T14:11:35;18.17;;;11.18;;
20705;SDS011;10514;49.468;11.044;2024-03-06T14:14:00;15.55;;;9.38;;
20705;SDS011;10514;49.468;11.044;2024-03-06T14:16:26;16.88;;;10.25;;
20705;SDS011;10514;49.468;11.044;2024-03-06T14:18:52;15.40;;;9.82;;
20705;SDS011;10514;49.468;11.044;2024-03-06T14:21:18;16.83;;;9.98;;
20705;SDS011;10514;49.468;11.044;2024-03-06T14:23:44;16.98;;;9.90;;
20705;SDS011;10514;49.468;11.044;2024-03-06T14:26:09;16.33;;;10.32;;
20705;SDS011;10514;49.468;11.044;2024-03-06T14:28:35;17.77;;;11.35;;